createdAt,value
2018-07-29T00:00:45.486Z,0
2018-07-29T00:01:52.977Z,0
2018-07-29T00:03:01.071Z,0
2018-07-29T00:04:09.154Z,0
2018-07-29T00:05:17.196Z,0
2018-07-29T00:06:25.624Z,0
2018-07-29T00:07:33.495Z,0
2018-07-29T00:08:41.372Z,0
2018-07-29T00:09:49.724Z,0
2018-07-29T00:10:58.455Z,0
2018-07-29T00:12:05.939Z,0
2018-07-29T00:13:13.632Z,0
2018-07-29T00:14:21.698Z,0
2018-07-29T00:15:29.969Z,0
2018-07-29T00:16:38.079Z,0
2018-07-29T00:17:46.302Z,0
2018-07-29T00:18:54.468Z,0
2018-07-29T00:20:03.953Z,0
2018-07-29T00:21:10.468Z,0
2018-07-29T00:22:18.698Z,0
2018-07-29T00:23:26.631Z,0
2018-07-29T00:24:34.919Z,0
2018-07-29T00:25:42.910Z,0
2018-07-29T00:26:53.737Z,0
2018-07-29T00:27:58.890Z,0
2018-07-29T00:29:06.978Z,0
2018-07-29T00:30:15.074Z,0
2018-07-29T00:31:23.209Z,0
2018-07-29T00:32:31.188Z,0
2018-07-29T00:33:39.376Z,0
2018-07-29T00:34:47.388Z,0
2018-07-29T00:35:55.382Z,0
2018-07-29T00:37:03.466Z,0
2018-07-29T00:38:11.702Z,0
2018-07-29T00:39:19.874Z,0
2018-07-29T00:40:28.139Z,0
2018-07-29T00:41:36.176Z,0
2018-07-29T00:42:44.228Z,0
2018-07-29T00:43:52.326Z,0
2018-07-29T00:45:00.358Z,0
2018-07-29T00:46:08.563Z,0
2018-07-29T00:47:16.492Z,0
2018-07-29T00:48:24.592Z,0
2018-07-29T00:49:32.544Z,0
2018-07-29T00:50:40.906Z,0
2018-07-29T00:51:48.687Z,0
2018-07-29T00:52:56.818Z,0
2018-07-29T00:54:05.269Z,0
2018-07-29T00:55:13.932Z,0
2018-07-29T00:56:21.112Z,0
2018-07-29T00:57:29.207Z,0
2018-07-29T00:58:37.189Z,0
2018-07-29T00:59:45.297Z,0
2018-07-29T01:00:53.216Z,0
2018-07-29T01:02:01.465Z,0
2018-07-29T01:03:09.414Z,0
2018-07-29T01:04:17.723Z,0
2018-07-29T01:05:25.463Z,0
2018-07-29T01:06:33.539Z,0
2018-07-29T01:07:41.785Z,0
2018-07-29T01:08:49.654Z,0
2018-07-29T01:09:57.941Z,0
2018-07-29T01:11:05.990Z,0
2018-07-29T01:12:14.233Z,0
2018-07-29T01:13:22.265Z,0
2018-07-29T01:14:30.474Z,0
2018-07-29T01:15:38.641Z,0
2018-07-29T01:16:46.342Z,0
2018-07-29T01:17:54.616Z,0
2018-07-29T01:19:02.812Z,0
2018-07-29T01:20:10.620Z,0
2018-07-29T01:21:18.899Z,0
2018-07-29T01:22:26.672Z,0
2018-07-29T01:23:34.733Z,0
2018-07-29T01:24:42.784Z,0
2018-07-29T01:25:52.284Z,0
2018-07-29T01:26:59.107Z,0
2018-07-29T01:28:07.784Z,0
2018-07-29T01:29:15.404Z,0
2018-07-29T01:30:23.839Z,0
2018-07-29T01:31:31.565Z,0
2018-07-29T01:32:39.646Z,0
2018-07-29T01:33:47.695Z,0
2018-07-29T01:34:55.753Z,0
2018-07-29T01:36:03.840Z,0
2018-07-29T01:37:11.922Z,0
2018-07-29T01:38:19.962Z,0
2018-07-29T01:39:28.031Z,0
2018-07-29T01:40:36.089Z,0
2018-07-29T01:41:44.181Z,0
2018-07-29T01:42:52.288Z,0
2018-07-29T01:44:00.307Z,0
2018-07-29T01:45:08.362Z,0
2018-07-29T01:46:16.451Z,0
2018-07-29T01:47:24.495Z,0
2018-07-29T01:48:32.556Z,0
2018-07-29T01:49:40.616Z,0
2018-07-29T01:50:48.718Z,0
2018-07-29T01:51:56.748Z,0
2018-07-29T01:53:04.842Z,0
2018-07-29T01:54:12.893Z,0
2018-07-29T01:55:20.982Z,0
2018-07-29T01:56:29.024Z,0
2018-07-29T01:57:37.101Z,0
2018-07-29T01:58:45.144Z,0
2018-07-29T01:59:53.239Z,0
2018-07-29T02:01:01.290Z,0
2018-07-29T02:02:09.355Z,0
2018-07-29T02:03:17.425Z,0
2018-07-29T02:04:25.462Z,0
2018-07-29T02:05:33.560Z,0
2018-07-29T02:06:41.625Z,0
2018-07-29T02:07:49.688Z,0
2018-07-29T02:08:58.060Z,0
2018-07-29T02:10:09.169Z,0
2018-07-29T02:11:13.881Z,0
2018-07-29T02:12:21.971Z,0
2018-07-29T02:13:30.017Z,0
2018-07-29T02:14:39.841Z,0
2018-07-29T02:15:46.145Z,0
2018-07-29T02:16:58.026Z,0
2018-07-29T02:18:02.277Z,0
2018-07-29T02:19:10.373Z,0
2018-07-29T02:20:18.412Z,0
2018-07-29T02:21:26.491Z,0
2018-07-29T02:22:34.543Z,0
2018-07-29T02:23:42.833Z,0
2018-07-29T02:24:50.886Z,0
2018-07-29T02:25:58.969Z,0
2018-07-29T02:27:07.013Z,0
2018-07-29T02:28:15.070Z,0
2018-07-29T02:29:23.138Z,0
2018-07-29T02:30:31.214Z,0
2018-07-29T02:31:39.292Z,0
2018-07-29T02:32:47.351Z,0
2018-07-29T02:33:55.379Z,0
2018-07-29T02:35:03.480Z,0
2018-07-29T02:36:11.575Z,0
2018-07-29T02:37:19.598Z,0
2018-07-29T02:38:27.691Z,0
2018-07-29T02:39:35.712Z,0
2018-07-29T02:40:43.818Z,0
2018-07-29T02:41:51.873Z,0
2018-07-29T02:43:00.043Z,0
2018-07-29T02:44:08.006Z,0
2018-07-29T02:45:16.061Z,0
2018-07-29T02:46:24.131Z,0
2018-07-29T02:47:32.227Z,0
2018-07-29T02:48:40.362Z,0
2018-07-29T02:49:48.354Z,0
2018-07-29T02:50:56.718Z,0
2018-07-29T02:52:04.478Z,0
2018-07-29T02:53:12.529Z,0
2018-07-29T02:54:20.606Z,0
2018-07-29T02:55:28.670Z,0
2018-07-29T02:56:36.747Z,0
2018-07-29T02:57:44.792Z,0
2018-07-29T02:58:52.856Z,0
2018-07-29T03:00:00.917Z,0
2018-07-29T03:01:08.994Z,0
2018-07-29T03:02:17.071Z,0
2018-07-29T03:03:25.111Z,0
2018-07-29T03:04:33.177Z,0
2018-07-29T03:05:42.263Z,0
2018-07-29T03:06:50.820Z,0
2018-07-29T03:07:57.370Z,0
2018-07-29T03:09:05.437Z,0
2018-07-29T03:10:13.532Z,0
2018-07-29T03:11:22.063Z,0
2018-07-29T03:12:29.877Z,0
2018-07-29T03:13:37.916Z,0
2018-07-29T03:14:45.966Z,0
2018-07-29T03:15:54.604Z,0
2018-07-29T03:17:02.322Z,0
2018-07-29T03:18:10.579Z,0
2018-07-29T03:19:18.644Z,0
2018-07-29T03:20:26.788Z,0
2018-07-29T03:21:34.788Z,0
2018-07-29T03:22:42.876Z,4
2018-07-29T03:23:50.917Z,4
2018-07-29T03:24:59.021Z,0
2018-07-29T03:26:07.065Z,4
2018-07-29T03:27:15.165Z,4
2018-07-29T03:28:23.171Z,4
2018-07-29T03:29:31.313Z,8
2018-07-29T03:30:39.513Z,8
2018-07-29T03:31:47.850Z,8
2018-07-29T03:32:55.611Z,12
2018-07-29T03:34:03.732Z,12
2018-07-29T03:35:11.775Z,16
2018-07-29T03:36:19.839Z,20
2018-07-29T03:37:27.961Z,24
2018-07-29T03:38:35.958Z,24
2018-07-29T03:39:44.049Z,28
2018-07-29T03:40:52.108Z,36
2018-07-29T03:42:00.168Z,40
2018-07-29T03:43:08.229Z,44
2018-07-29T03:44:16.306Z,52
2018-07-29T03:45:24.390Z,64
2018-07-29T03:46:32.444Z,72
2018-07-29T03:47:40.516Z,84
2018-07-29T03:48:48.571Z,96
2018-07-29T03:49:56.734Z,108
2018-07-29T03:51:04.707Z,128
2018-07-29T03:52:12.786Z,140
2018-07-29T03:53:20.837Z,144
2018-07-29T03:54:28.925Z,152
2018-07-29T03:55:36.963Z,164
2018-07-29T03:56:45.086Z,176
2018-07-29T03:57:53.107Z,188
2018-07-29T03:59:01.159Z,204
2018-07-29T04:00:09.230Z,220
2018-07-29T04:01:17.509Z,236
2018-07-29T04:02:25.551Z,252
2018-07-29T04:03:33.639Z,276
2018-07-29T04:04:43.146Z,292
2018-07-29T04:05:49.856Z,316
2018-07-29T04:06:59.364Z,340
2018-07-29T04:08:06.161Z,368
2018-07-29T04:09:14.399Z,396
2018-07-29T04:10:22.438Z,428
2018-07-29T04:11:30.543Z,464
2018-07-29T04:12:38.657Z,504
2018-07-29T04:13:46.670Z,548
2018-07-29T04:14:54.713Z,596
2018-07-29T04:16:02.887Z,648
2018-07-29T04:17:10.887Z,700
2018-07-29T04:18:18.901Z,760
2018-07-29T04:19:27.235Z,816
2018-07-29T04:20:35.029Z,880
2018-07-29T04:21:44.647Z,944
2018-07-29T04:22:51.182Z,1016
2018-07-29T04:23:59.241Z,1088
2018-07-29T04:25:07.307Z,1148
2018-07-29T04:26:16.868Z,1196
2018-07-29T04:27:23.439Z,1252
2018-07-29T04:28:31.517Z,1320
2018-07-29T04:29:39.578Z,1392
2018-07-29T04:30:47.659Z,1468
2018-07-29T04:31:55.669Z,1572
2018-07-29T04:33:03.787Z,1712
2018-07-29T04:34:11.829Z,1860
2018-07-29T04:35:20.175Z,2008
2018-07-29T04:36:27.954Z,2144
2018-07-29T04:37:36.016Z,2260
2018-07-29T04:38:44.090Z,2372
2018-07-29T04:39:52.197Z,2476
2018-07-29T04:41:00.594Z,2568
2018-07-29T04:42:08.301Z,2672
2018-07-29T04:43:16.348Z,2776
2018-07-29T04:44:24.695Z,2880
2018-07-29T04:45:33.988Z,2988
2018-07-29T04:46:40.646Z,3072
2018-07-29T04:47:50.053Z,3140
2018-07-29T04:48:56.705Z,3188
2018-07-29T04:50:04.789Z,3196
2018-07-29T04:51:12.829Z,3208
2018-07-29T04:52:20.891Z,3272
2018-07-29T04:53:28.948Z,3316
2018-07-29T04:54:37.034Z,3364
2018-07-29T04:55:45.082Z,3428
2018-07-29T04:56:53.157Z,3436
2018-07-29T04:58:01.252Z,3444
2018-07-29T04:59:09.332Z,3444
2018-07-29T05:00:17.386Z,3440
2018-07-29T05:01:25.393Z,3516
2018-07-29T05:02:33.606Z,3604
2018-07-29T05:03:41.827Z,3704
2018-07-29T05:04:49.646Z,3820
2018-07-29T05:05:57.902Z,4040
2018-07-29T05:07:05.961Z,4348
2018-07-29T05:08:14.496Z,4448
2018-07-29T05:09:22.292Z,4640
2018-07-29T05:10:30.369Z,4888
2018-07-29T05:11:38.429Z,5076
2018-07-29T05:12:46.497Z,5232
2018-07-29T05:13:54.553Z,5372
2018-07-29T05:15:02.996Z,5500
2018-07-29T05:16:10.688Z,5712
2018-07-29T05:17:19.760Z,7176
2018-07-29T05:18:26.830Z,8980
2018-07-29T05:19:34.908Z,8644
2018-07-29T05:20:42.968Z,7920
2018-07-29T05:21:51.058Z,7312
2018-07-29T05:22:59.103Z,6216
2018-07-29T05:24:07.192Z,5928
2018-07-29T05:25:15.218Z,5828
2018-07-29T05:26:23.330Z,5596
2018-07-29T05:27:31.364Z,5344
2018-07-29T05:28:39.441Z,5016
2018-07-29T05:29:47.508Z,4804
2018-07-29T05:30:55.548Z,4900
2018-07-29T05:32:03.641Z,4852
2018-07-29T05:33:11.720Z,4912
2018-07-29T05:34:19.775Z,4804
2018-07-29T05:35:28.069Z,4528
2018-07-29T05:36:36.102Z,4640
2018-07-29T05:37:44.180Z,4788
2018-07-29T05:38:52.255Z,4868
2018-07-29T05:40:00.321Z,5128
2018-07-29T05:41:08.396Z,5224
2018-07-29T05:42:16.462Z,5244
2018-07-29T05:43:24.526Z,5272
2018-07-29T05:44:32.591Z,5348
2018-07-29T05:45:40.667Z,5392
2018-07-29T05:46:49.902Z,5476
2018-07-29T05:47:56.809Z,5516
2018-07-29T05:49:04.872Z,5496
2018-07-29T05:50:12.948Z,5680
2018-07-29T05:51:21.703Z,5728
2018-07-29T05:52:29.163Z,5680
2018-07-29T05:53:38.637Z,5644
2018-07-29T05:54:45.195Z,5580
2018-07-29T05:55:53.315Z,5604
2018-07-29T05:57:01.388Z,5588
2018-07-29T05:58:09.538Z,5676
2018-07-29T05:59:19.059Z,5764
2018-07-29T06:00:25.546Z,5900
2018-07-29T06:01:33.622Z,6004
2018-07-29T06:02:41.701Z,6056
2018-07-29T06:03:50.022Z,6016
2018-07-29T06:04:59.622Z,6028
2018-07-29T06:06:05.894Z,6032
2018-07-29T06:07:17.373Z,5956
2018-07-29T06:08:22.045Z,5828
2018-07-29T06:09:30.206Z,5700
2018-07-29T06:10:39.653Z,6128
2018-07-29T06:11:46.293Z,6084
2018-07-29T06:12:59.154Z,5908
2018-07-29T06:14:05.480Z,6276
2018-07-29T06:15:13.718Z,6336
2018-07-29T06:16:21.743Z,6256
2018-07-29T06:17:30.295Z,6248
2018-07-29T06:18:41.034Z,6220
2018-07-29T06:19:50.212Z,6372
2018-07-29T06:21:13.190Z,6512
2018-07-29T06:22:09.139Z,6536
2018-07-29T06:23:19.262Z,6468
2018-07-29T06:24:23.074Z,6516
2018-07-29T06:25:30.895Z,6544
2018-07-29T06:26:43.271Z,6516
2018-07-29T06:27:49.629Z,6468
2018-07-29T06:28:55.560Z,6336
2018-07-29T06:30:03.161Z,6412
2018-07-29T06:31:18.060Z,6236
2018-07-29T06:32:20.752Z,6504
2018-07-29T06:33:40.117Z,6524
2018-07-29T06:34:43.937Z,6472
2018-07-29T06:35:43.757Z,6360
2018-07-29T06:36:51.782Z,6224
2018-07-29T06:38:00.876Z,5984
2018-07-29T06:39:07.914Z,6040
2018-07-29T06:40:17.153Z,6228
2018-07-29T06:41:24.055Z,6696
2018-07-29T06:42:34.598Z,7088
2018-07-29T06:43:40.202Z,7600
2018-07-29T06:44:48.524Z,6888
2018-07-29T06:45:56.491Z,6892
2018-07-29T06:47:04.855Z,7060
2018-07-29T06:48:12.543Z,7212
2018-07-29T06:49:20.714Z,7308
2018-07-29T06:50:28.603Z,7364
2018-07-29T06:51:37.005Z,7460
2018-07-29T06:52:44.881Z,7524
2018-07-29T06:53:56.201Z,7404
2018-07-29T06:55:03.643Z,7332
2018-07-29T06:56:11.740Z,7344
2018-07-29T06:57:19.704Z,7296
2018-07-29T06:58:27.520Z,7288
2018-07-29T06:59:35.560Z,7384
2018-07-29T07:00:45.044Z,7296
2018-07-29T07:01:54.971Z,7576
2018-07-29T07:02:59.999Z,7640
2018-07-29T07:04:09.569Z,7660
2018-07-29T07:05:16.387Z,7776
2018-07-29T07:06:24.261Z,7736
2018-07-29T07:07:38.888Z,7688
2018-07-29T07:08:40.321Z,7588
2018-07-29T07:09:48.402Z,7868
2018-07-29T07:10:56.491Z,8068
2018-07-29T07:12:05.935Z,8056
2018-07-29T07:13:12.647Z,8108
2018-07-29T07:14:20.707Z,8228
2018-07-29T07:15:28.739Z,8504
2018-07-29T07:16:36.990Z,8616
2018-07-29T07:17:46.312Z,9196
2018-07-29T07:18:52.952Z,10104
2018-07-29T07:20:01.317Z,13256
2018-07-29T07:21:09.093Z,11876
2018-07-29T07:22:17.245Z,11460
2018-07-29T07:23:25.218Z,15088
2018-07-29T07:24:33.326Z,16276
2018-07-29T07:25:41.379Z,22528
2018-07-29T07:26:49.484Z,41696
2018-07-29T07:27:57.536Z,35584
2018-07-29T07:29:06.863Z,46624
2018-07-29T07:30:14.672Z,69184
2018-07-29T07:31:22.742Z,57728
2018-07-29T07:32:30.815Z,52832
2018-07-29T07:33:38.870Z,55776
2018-07-29T07:34:49.527Z,50816
2018-07-29T07:35:56.000Z,48448
2018-07-29T07:37:04.107Z,50208
2018-07-29T07:38:12.261Z,49984
2018-07-29T07:39:20.264Z,51360
2018-07-29T07:40:28.319Z,50656
2018-07-29T07:41:43.477Z,51488
2018-07-29T07:42:49.522Z,53152
2018-07-29T07:43:57.590Z,57888
2018-07-29T07:45:05.664Z,57472
2018-07-29T07:46:13.757Z,60384
2018-07-29T07:47:21.950Z,62816
2018-07-29T07:48:30.227Z,65056
2018-07-29T07:49:38.255Z,65216
2018-07-29T07:50:46.187Z,59136
2018-07-29T07:51:55.009Z,58080
2018-07-29T07:53:02.302Z,59424
2018-07-29T07:54:10.328Z,61120
2018-07-29T07:55:19.910Z,57536
2018-07-29T07:56:27.471Z,60416
2018-07-29T07:57:36.606Z,62080
2018-07-29T07:58:43.089Z,60896
2018-07-29T07:59:50.915Z,61824
2018-07-29T08:00:59.293Z,52864
2018-07-29T08:02:07.719Z,49472
2018-07-29T08:03:15.847Z,54528
2018-07-29T08:04:23.989Z,53344
2018-07-29T08:05:31.631Z,52288
2018-07-29T08:06:39.635Z,49984
2018-07-29T08:07:47.798Z,54848
2018-07-29T08:08:56.065Z,55392
2018-07-29T08:10:04.339Z,45792
2018-07-29T08:11:12.295Z,41376
2018-07-29T08:12:20.016Z,52448
2018-07-29T08:13:28.593Z,59456
2018-07-29T08:14:36.630Z,56480
2018-07-29T08:15:44.438Z,46144
2018-07-29T08:16:52.927Z,68736
2018-07-29T08:18:00.704Z,65248
2018-07-29T08:19:09.429Z,65856
2018-07-29T08:20:17.131Z,68672
2018-07-29T08:21:25.394Z,75552
2018-07-29T08:22:36.149Z,73696
2018-07-29T08:23:41.371Z,70912
2018-07-29T08:24:49.477Z,72064
2018-07-29T08:25:57.433Z,72544
2018-07-29T08:27:05.617Z,70912
2018-07-29T08:28:13.726Z,75840
2018-07-29T08:29:21.437Z,75584
2018-07-29T08:30:29.518Z,71744
2018-07-29T08:31:37.622Z,76768
2018-07-29T08:32:46.228Z,70688
2018-07-29T08:33:53.800Z,77152
2018-07-29T08:35:02.214Z,76000
2018-07-29T08:36:10.444Z,71136
2018-07-29T08:37:18.236Z,70816
2018-07-29T08:38:26.451Z,67616
2018-07-29T08:39:34.174Z,72832
2018-07-29T08:40:42.290Z,68736
2018-07-29T08:41:50.336Z,68256
2018-07-29T08:42:58.434Z,71200
2018-07-29T08:44:06.482Z,73984
2018-07-29T08:45:14.585Z,67136
2018-07-29T08:46:22.654Z,64576
2018-07-29T08:47:30.755Z,73504
2018-07-29T08:48:38.837Z,76928
2018-07-29T08:49:47.127Z,69408
2018-07-29T08:50:55.267Z,60352
2018-07-29T08:52:03.279Z,67360
2018-07-29T08:53:11.357Z,70272
2018-07-29T08:54:19.461Z,65376
2018-07-29T08:55:27.529Z,68288
2018-07-29T08:56:35.605Z,70656
2018-07-29T08:57:43.685Z,57952
2018-07-29T08:58:51.801Z,70208
2018-07-29T08:59:59.967Z,74656
2018-07-29T09:01:07.950Z,76896
2018-07-29T09:02:16.005Z,76544
2018-07-29T09:03:24.121Z,80000
2018-07-29T09:04:32.176Z,79296
2018-07-29T09:05:40.291Z,71584
2018-07-29T09:06:48.352Z,80992
2018-07-29T09:07:56.435Z,87328
2018-07-29T09:09:04.507Z,98656
2018-07-29T09:10:12.586Z,88416
2018-07-29T09:11:20.683Z,77760
2018-07-29T09:12:28.868Z,87712
2018-07-29T09:13:36.854Z,83936
2018-07-29T09:14:44.911Z,82400
2018-07-29T09:15:56.575Z,79456
2018-07-29T09:17:01.089Z,81440
2018-07-29T09:18:09.215Z,75616
2018-07-29T09:19:17.269Z,80640
2018-07-29T09:20:25.341Z,76896
2018-07-29T09:21:33.446Z,71136
2018-07-29T09:22:41.527Z,30880
2018-07-29T09:23:51.602Z,12232
2018-07-29T09:24:57.691Z,10776
2018-07-29T09:26:05.726Z,9744
2018-07-29T09:27:13.897Z,9184
2018-07-29T09:28:21.920Z,8832
2018-07-29T09:29:30.087Z,8564
2018-07-29T09:30:38.262Z,8320
2018-07-29T09:31:49.537Z,8108
2018-07-29T09:32:54.243Z,7820
2018-07-29T09:34:04.448Z,7568
2018-07-29T09:35:10.391Z,7440
2018-07-29T09:36:21.855Z,7368
2018-07-29T09:37:26.628Z,7468
2018-07-29T09:38:34.667Z,7588
2018-07-29T09:39:42.707Z,7632
2018-07-29T09:40:50.811Z,7724
2018-07-29T09:41:58.967Z,7796
2018-07-29T09:43:07.058Z,7876
2018-07-29T09:44:15.022Z,7992
2018-07-29T09:45:23.261Z,7748
2018-07-29T09:46:31.180Z,8004
2018-07-29T09:47:39.337Z,8048
2018-07-29T09:48:47.596Z,8108
2018-07-29T09:49:55.386Z,8072
2018-07-29T09:51:05.100Z,8144
2018-07-29T09:52:15.566Z,8408
2018-07-29T09:53:23.685Z,8424
2018-07-29T09:54:31.748Z,8372
2018-07-29T09:55:39.838Z,8336
2018-07-29T09:56:47.903Z,8252
2018-07-29T09:57:55.993Z,8120
2018-07-29T09:59:04.057Z,7916
2018-07-29T10:00:12.144Z,7756
2018-07-29T10:01:20.296Z,7548
2018-07-29T10:02:28.288Z,7444
2018-07-29T10:03:36.334Z,7484
2018-07-29T10:04:44.424Z,7672
2018-07-29T10:05:52.511Z,7728
2018-07-29T10:07:00.596Z,7748
2018-07-29T10:08:09.661Z,7688
2018-07-29T10:09:19.265Z,7528
2018-07-29T10:10:25.765Z,7296
2018-07-29T10:11:33.895Z,7136
2018-07-29T10:12:41.948Z,6988
2018-07-29T10:13:50.385Z,6964
2018-07-29T10:14:58.298Z,6972
2018-07-29T10:16:06.387Z,7136
2018-07-29T10:17:14.443Z,7356
2018-07-29T10:18:22.538Z,7464
2018-07-29T10:19:30.871Z,7508
2018-07-29T10:20:38.680Z,7584
2018-07-29T10:21:47.948Z,7648
2018-07-29T10:22:56.012Z,7768
2018-07-29T10:24:04.112Z,7832
2018-07-29T10:25:12.871Z,7828
2018-07-29T10:26:20.244Z,7668
2018-07-29T10:27:29.850Z,7524
2018-07-29T10:28:36.392Z,7344
2018-07-29T10:29:44.493Z,7180
2018-07-29T10:30:52.543Z,7028
2018-07-29T10:32:00.647Z,6864
2018-07-29T10:33:08.703Z,6644
2018-07-29T10:34:16.782Z,6464
2018-07-29T10:35:24.837Z,6328
2018-07-29T10:36:32.935Z,6260
2018-07-29T10:37:40.987Z,6240
2018-07-29T10:38:49.071Z,6240
2018-07-29T10:39:57.238Z,6276
2018-07-29T10:41:05.216Z,6308
2018-07-29T10:42:14.792Z,6328
2018-07-29T10:43:21.378Z,6324
2018-07-29T10:44:29.445Z,6284
2018-07-29T10:45:37.518Z,6276
2018-07-29T10:46:48.998Z,6252
2018-07-29T10:47:53.863Z,6196
2018-07-29T10:49:01.970Z,6124
2018-07-29T10:50:10.015Z,6040
2018-07-29T10:51:21.829Z,5964
2018-07-29T10:52:26.250Z,5856
2018-07-29T10:53:37.599Z,5744
2018-07-29T10:54:42.355Z,5636
2018-07-29T10:55:50.407Z,5524
2018-07-29T10:56:58.460Z,5404
2018-07-29T10:58:06.566Z,5304
2018-07-29T10:59:14.888Z,5220
2018-07-29T11:00:22.711Z,5148
2018-07-29T11:01:30.761Z,5100
2018-07-29T11:02:38.856Z,5048
2018-07-29T11:03:46.906Z,5000
2018-07-29T11:04:54.995Z,4948
2018-07-29T11:06:03.056Z,4880
2018-07-29T11:07:11.138Z,4816
2018-07-29T11:08:19.219Z,4800
2018-07-29T11:09:27.277Z,4796
2018-07-29T11:10:35.333Z,4840
2018-07-29T11:11:43.436Z,4912
2018-07-29T11:12:51.505Z,4996
2018-07-29T11:13:59.575Z,5016
2018-07-29T11:15:07.643Z,5024
2018-07-29T11:16:15.698Z,5016
2018-07-29T11:17:25.320Z,4956
2018-07-29T11:18:31.877Z,4864
2018-07-29T11:19:39.968Z,4780
2018-07-29T11:20:48.017Z,4708
2018-07-29T11:21:56.121Z,4660
2018-07-29T11:23:04.390Z,4632
2018-07-29T11:24:12.476Z,4612
2018-07-29T11:25:20.535Z,4576
2018-07-29T11:26:28.630Z,4520
2018-07-29T11:27:36.682Z,4448
2018-07-29T11:28:44.754Z,4372
2018-07-29T11:29:53.197Z,4332
2018-07-29T11:31:00.893Z,4336
2018-07-29T11:32:08.994Z,4348
2018-07-29T11:33:17.044Z,4348
2018-07-29T11:34:25.130Z,4340
2018-07-29T11:35:33.202Z,4332
2018-07-29T11:36:42.012Z,4296
2018-07-29T11:37:49.548Z,4268
2018-07-29T11:38:57.643Z,4232
2018-07-29T11:40:05.682Z,4216
2018-07-29T11:41:14.070Z,4204
2018-07-29T11:42:21.867Z,4184
2018-07-29T11:43:29.958Z,4204
2018-07-29T11:44:38.214Z,4200
2018-07-29T11:45:46.499Z,4204
2018-07-29T11:46:54.548Z,4208
2018-07-29T11:48:02.623Z,4196
2018-07-29T11:49:10.695Z,4184
2018-07-29T11:50:19.048Z,4156
2018-07-29T11:51:27.048Z,4128
2018-07-29T11:52:35.124Z,4104
2018-07-29T11:53:43.197Z,4076
2018-07-29T11:54:51.277Z,4044
2018-07-29T11:56:00.820Z,4012
2018-07-29T11:57:07.422Z,4004
2018-07-29T11:58:18.808Z,3992
2018-07-29T11:59:23.578Z,3976
2018-07-29T12:00:31.768Z,3964
2018-07-29T12:01:39.725Z,3952
2018-07-29T12:02:47.829Z,3944
2018-07-29T12:03:55.862Z,3932
2018-07-29T12:05:03.948Z,3920
2018-07-29T12:06:12.719Z,3904
2018-07-29T12:07:20.098Z,3900
2018-07-29T12:08:28.170Z,3900
2018-07-29T12:09:36.249Z,3896
2018-07-29T12:10:44.330Z,3896
2018-07-29T12:11:55.967Z,3880
2018-07-29T12:13:00.482Z,3884
2018-07-29T12:14:08.551Z,3868
2018-07-29T12:15:16.618Z,3844
2018-07-29T12:16:24.692Z,3824
2018-07-29T12:17:32.761Z,3812
2018-07-29T12:18:40.840Z,3800
2018-07-29T12:19:48.906Z,3784
2018-07-29T12:20:59.309Z,3784
2018-07-29T12:22:05.255Z,3768
2018-07-29T12:23:14.423Z,3752
2018-07-29T12:24:21.415Z,3752
2018-07-29T12:25:29.507Z,3756
2018-07-29T12:26:37.565Z,3772
2018-07-29T12:27:45.634Z,3780
2018-07-29T12:28:53.722Z,3780
2018-07-29T12:30:01.808Z,3780
2018-07-29T12:31:10.128Z,3784
2018-07-29T12:32:17.936Z,3784
2018-07-29T12:33:25.984Z,3780
2018-07-29T12:34:34.095Z,3776
2018-07-29T12:35:42.156Z,3768
2018-07-29T12:36:50.226Z,3764
2018-07-29T12:37:58.333Z,3760
2018-07-29T12:39:06.365Z,3744
2018-07-29T12:40:14.449Z,3732
2018-07-29T12:41:22.536Z,3724
2018-07-29T12:42:30.604Z,3724
2018-07-29T12:43:38.670Z,3732
2018-07-29T12:44:46.756Z,3724
2018-07-29T12:45:54.821Z,3772
2018-07-29T12:47:02.929Z,3768
2018-07-29T12:48:11.177Z,3764
2018-07-29T12:49:19.273Z,3752
2018-07-29T12:50:27.514Z,3732
2018-07-29T12:51:35.593Z,3748
2018-07-29T12:52:43.672Z,3784
2018-07-29T12:53:51.780Z,3844
2018-07-29T12:54:59.826Z,3836
2018-07-29T12:56:07.921Z,3820
2018-07-29T12:57:15.951Z,3768
2018-07-29T12:58:24.061Z,3728
2018-07-29T12:59:32.124Z,3748
2018-07-29T13:00:40.575Z,3744
2018-07-29T13:01:48.275Z,3732
2018-07-29T13:02:57.831Z,3728
2018-07-29T13:04:04.424Z,3728
2018-07-29T13:05:12.616Z,3748
2018-07-29T13:06:20.566Z,3776
2018-07-29T13:07:28.757Z,3800
2018-07-29T13:08:36.707Z,3808
2018-07-29T13:09:44.817Z,3820
2018-07-29T13:10:52.860Z,3812
2018-07-29T13:12:01.116Z,3800
2018-07-29T13:13:09.003Z,3784
2018-07-29T13:14:17.088Z,3780
2018-07-29T13:15:25.147Z,3760
2018-07-29T13:16:34.261Z,3752
2018-07-29T13:17:41.310Z,3756
2018-07-29T13:18:49.385Z,3756
2018-07-29T13:19:58.905Z,3744
2018-07-29T13:21:05.501Z,3716
2018-07-29T13:22:13.632Z,3712
2018-07-29T13:23:21.997Z,3696
2018-07-29T13:24:29.761Z,3684
2018-07-29T13:25:38.085Z,3668
2018-07-29T13:26:46.130Z,3656
2018-07-29T13:27:54.539Z,3640
2018-07-29T13:29:02.279Z,3624
2018-07-29T13:30:10.332Z,3592
2018-07-29T13:31:18.413Z,3560
2018-07-29T13:32:26.481Z,3536
2018-07-29T13:33:34.668Z,3520
2018-07-29T13:34:42.641Z,3512
2018-07-29T13:35:50.695Z,3504
2018-07-29T13:36:58.774Z,3484
2018-07-29T13:38:06.938Z,3464
2018-07-29T13:39:14.932Z,3464
2018-07-29T13:40:23.010Z,3472
2018-07-29T13:41:32.793Z,3464
2018-07-29T13:42:39.160Z,3448
2018-07-29T13:43:48.720Z,3432
2018-07-29T13:44:55.288Z,3416
2018-07-29T13:46:03.383Z,3416
2018-07-29T13:47:11.458Z,3408
2018-07-29T13:48:19.545Z,3408
2018-07-29T13:49:27.795Z,3432
2018-07-29T13:50:35.872Z,3504
2018-07-29T13:51:43.951Z,3472
2018-07-29T13:52:52.044Z,3780
2018-07-29T13:54:00.187Z,3912
2018-07-29T13:55:08.201Z,3516
2018-07-29T13:56:16.496Z,3292
2018-07-29T13:57:24.307Z,3284
2018-07-29T13:58:32.389Z,3296
2018-07-29T13:59:40.456Z,3284
2018-07-29T14:00:48.756Z,3268
2018-07-29T14:01:57.848Z,3252
2018-07-29T14:03:04.890Z,3240
2018-07-29T14:04:12.953Z,3232
2018-07-29T14:05:21.047Z,3236
2018-07-29T14:06:29.173Z,3240
2018-07-29T14:07:37.200Z,3236
2018-07-29T14:08:45.249Z,3232
2018-07-29T14:09:56.750Z,3228
2018-07-29T14:11:01.789Z,3216
2018-07-29T14:12:09.514Z,3208
2018-07-29T14:13:17.563Z,3216
2018-07-29T14:14:29.002Z,3248
2018-07-29T14:15:33.720Z,3248
2018-07-29T14:16:41.809Z,3256
2018-07-29T14:17:49.851Z,3244
2018-07-29T14:18:57.946Z,3236
2018-07-29T14:20:05.992Z,3232
2018-07-29T14:21:14.085Z,3224
2018-07-29T14:22:22.162Z,3220
2018-07-29T14:23:30.317Z,3220
2018-07-29T14:24:38.317Z,3216
2018-07-29T14:25:46.386Z,3208
2018-07-29T14:26:54.663Z,3280
2018-07-29T14:28:02.729Z,3196
2018-07-29T14:29:12.234Z,3164
2018-07-29T14:30:18.876Z,3124
2018-07-29T14:31:26.960Z,3112
2018-07-29T14:32:35.135Z,3100
2018-07-29T14:33:43.098Z,3108
2018-07-29T14:34:51.393Z,3092
2018-07-29T14:35:59.383Z,3076
2018-07-29T14:37:08.164Z,3100
2018-07-29T14:38:16.414Z,3104
2018-07-29T14:39:24.078Z,3096
2018-07-29T14:40:34.686Z,3088
2018-07-29T14:41:39.623Z,3088
2018-07-29T14:42:50.085Z,3080
2018-07-29T14:43:55.738Z,3060
2018-07-29T14:45:03.870Z,3072
2018-07-29T14:46:12.778Z,3120
2018-07-29T14:47:20.222Z,3100
2018-07-29T14:48:28.944Z,3080
2018-07-29T14:49:36.863Z,3072
2018-07-29T14:50:45.148Z,3044
2018-07-29T14:51:53.311Z,3040
2018-07-29T14:53:00.662Z,3024
2018-07-29T14:54:08.669Z,3000
2018-07-29T14:55:17.274Z,2976
2018-07-29T14:56:25.297Z,2964
2018-07-29T14:57:33.628Z,2964
2018-07-29T14:58:44.318Z,2968
2018-07-29T14:59:49.007Z,2976
2018-07-29T15:00:57.119Z,2996
2018-07-29T15:02:05.154Z,2984
2018-07-29T15:03:13.250Z,2992
2018-07-29T15:04:21.311Z,2984
2018-07-29T15:05:29.560Z,2976
2018-07-29T15:06:37.464Z,2960
2018-07-29T15:07:45.532Z,2968
2018-07-29T15:08:53.681Z,2944
2018-07-29T15:10:02.151Z,2940
2018-07-29T15:11:10.257Z,2920
2018-07-29T15:12:18.036Z,2920
2018-07-29T15:13:26.830Z,2912
2018-07-29T15:14:34.825Z,2904
2018-07-29T15:15:42.427Z,2896
2018-07-29T15:16:50.529Z,2892
2018-07-29T15:17:58.666Z,2884
2018-07-29T15:19:07.147Z,2880
2018-07-29T15:20:15.049Z,2876
2018-07-29T15:21:28.067Z,2876
2018-07-29T15:22:31.242Z,2880
2018-07-29T15:23:39.263Z,2880
2018-07-29T15:24:47.488Z,2880
2018-07-29T15:25:55.535Z,2872